sensor_id;sensor_type;location;lat;lon;timestamp;pressure;altitude;pressure_sealevel;temperature;humidity
5455;BME280;2750;49.050;9.250;2023-11-19T00:01:45;98715.34;;;11.21;94.19
5455;BME280;2750;49.050;9.250;2023-11-19T00:06:47;98697.53;;;11.13;94.92
5455;BME280;2750;49.050;9.250;2023-11-19T00:11:49;98701.06;;;11.12;95.50
5455;BME280;2750;49.050;9.250;2023-11-19T00:16:52;98697.75;;;11.43;95.07
5455;BME280;2750;49.050;9.250;2023-11-19T00:21:54;98674.34;;;11.43;95.01
5455;BME280;2750;49.050;9.250;2023-11-19T00:26:55;98685.88;;;11.55;95.03
5455;BME280;2750;49.050;9.250;2023-11-19T00:31:58;98681.41;;;11.41;95.89
5455;BME280;2750;49.050;9.250;2023-11-19T00:36:59;98662.44;;;11.56;96.42
5455;BME280;2750;49.050;9.250;2023-11-19T00:42:01;98662.72;;;11.50;96.69
5455;BME280;2750;49.050;9.250;2023-11-19T00:47:04;98667.44;;;11.59;96.69
5455;BME280;2750;49.050;9.250;2023-11-19T00:52:05;98649.88;;;11.64;96.16
5455;BME280;2750;49.050;9.250;2023-11-19T00:57:07;98649.25;;;12.08;95.82
5455;BME280;2750;49.050;9.250;2023-11-19T01:02:10;98639.34;;;12.30;95.20
5455;BME280;2750;49.050;9.250;2023-11-19T01:07:11;98633.78;;;12.36;94.24
5455;BME280;2750;49.050;9.250;2023-11-19T01:12:13;98636.41;;;12.36;94.07
5455;BME280;2750;49.050;9.250;2023-11-19T01:17:16;98640.00;;;12.49;94.05
5455;BME280;2750;49.050;9.250;2023-11-19T01:22:18;98642.97;;;12.57;93.96
5455;BME280;2750;49.050;9.250;2023-11-19T01:27:20;98640.75;;;12.51;94.30
5455;BME280;2750;49.050;9.250;2023-11-19T01:32:23;98638.69;;;12.72;94.22
5455;BME280;2750;49.050;9.250;2023-11-19T01:37:25;98637.25;;;12.66;93.59
5455;BME280;2750;49.050;9.250;2023-11-19T01:42:26;98649.13;;;12.86;93.63
5455;BME280;2750;49.050;9.250;2023-11-19T01:47:30;98642.38;;;12.98;93.29
5455;BME280;2750;49.050;9.250;2023-11-19T01:52:34;98616.16;;;13.01;93.34
5455;BME280;2750;49.050;9.250;2023-11-19T01:57:36;98613.59;;;12.85;93.95
5455;BME280;2750;49.050;9.250;2023-11-19T02:02:42;98625.72;;;13.00;93.54
5455;BME280;2750;49.050;9.250;2023-11-19T02:07:44;98621.97;;;13.20;93.37
5455;BME280;2750;49.050;9.250;2023-11-19T02:12:46;98618.91;;;13.27;93.32
5455;BME280;2750;49.050;9.250;2023-11-19T02:17:50;98612.00;;;13.26;92.85
5455;BME280;2750;49.050;9.250;2023-11-19T02:22:51;98617.53;;;13.36;92.36
5455;BME280;2750;49.050;9.250;2023-11-19T02:27:56;98617.97;;;13.14;93.39
5455;BME280;2750;49.050;9.250;2023-11-19T02:32:59;98617.91;;;13.30;93.03
5455;BME280;2750;49.050;9.250;2023-11-19T02:38:05;98597.88;;;13.30;93.21
5455;BME280;2750;49.050;9.250;2023-11-19T02:43:08;98606.06;;;13.38;93.06
5455;BME280;2750;49.050;9.250;2023-11-19T02:48:10;98598.25;;;13.38;93.25
5455;BME280;2750;49.050;9.250;2023-11-19T02:53:11;98609.88;;;13.47;92.96
5455;BME280;2750;49.050;9.250;2023-11-19T02:58:14;98624.31;;;13.53;92.68
5455;BME280;2750;49.050;9.250;2023-11-19T03:03:23;98611.91;;;13.42;92.40
5455;BME280;2750;49.050;9.250;2023-11-19T03:08:31;98602.59;;;13.38;92.90
5455;BME280;2750;49.050;9.250;2023-11-19T03:13:34;98573.59;;;13.44;93.02
5455;BME280;2750;49.050;9.250;2023-11-19T03:18:35;98570.50;;;13.52;93.28
5455;BME280;2750;49.050;9.250;2023-11-19T03:23:37;98569.66;;;13.51;92.81
5455;BME280;2750;49.050;9.250;2023-11-19T03:28:41;98578.69;;;13.31;94.37
5455;BME280;2750;49.050;9.250;2023-11-19T03:33:43;98547.81;;;13.25;94.52
5455;BME280;2750;49.050;9.250;2023-11-19T03:38:45;98548.22;;;13.04;95.87
5455;BME280;2750;49.050;9.250;2023-11-19T03:43:48;98539.38;;;12.92;96.83
5455;BME280;2750;49.050;9.250;2023-11-19T03:48:50;98539.03;;;12.84;97.85
5455;BME280;2750;49.050;9.250;2023-11-19T03:53:51;98542.03;;;13.06;97.03
5455;BME280;2750;49.050;9.250;2023-11-19T03:58:54;98522.03;;;13.07;97.34
5455;BME280;2750;49.050;9.250;2023-11-19T04:03:56;98530.22;;;13.29;96.50
5455;BME280;2750;49.050;9.250;2023-11-19T04:08:57;98529.09;;;13.33;97.11
5455;BME280;2750;49.050;9.250;2023-11-19T04:14:00;98519.63;;;13.18;97.39
5455;BME280;2750;49.050;9.250;2023-11-19T04:19:01;98525.22;;;13.26;97.27
5455;BME280;2750;49.050;9.250;2023-11-19T04:24:03;98527.25;;;13.21;97.05
5455;BME280;2750;49.050;9.250;2023-11-19T04:29:06;98529.09;;;13.33;97.78
5455;BME280;2750;49.050;9.250;2023-11-19T04:34:08;98532.06;;;13.41;97.57
5455;BME280;2750;49.050;9.250;2023-11-19T04:39:11;98522.22;;;13.32;98.72
5455;BME280;2750;49.050;9.250;2023-11-19T04:44:14;98526.09;;;13.39;98.80
5455;BME280;2750;49.050;9.250;2023-11-19T04:49:16;98525.06;;;13.56;98.71
5455;BME280;2750;49.050;9.250;2023-11-19T04:54:18;98534.69;;;13.41;99.39
5455;BME280;2750;49.050;9.250;2023-11-19T04:59:21;98543.06;;;13.73;98.50
5455;BME280;2750;49.050;9.250;2023-11-19T05:04:23;98537.50;;;13.65;98.86
5455;BME280;2750;49.050;9.250;2023-11-19T05:09:24;98528.72;;;13.39;100.00
5455;BME280;2750;49.050;9.250;2023-11-19T05:14:27;98536.97;;;13.46;100.00
5455;BME280;2750;49.050;9.250;2023-11-19T05:19:28;98531.28;;;13.53;100.00
5455;BME280;2750;49.050;9.250;2023-11-19T05:24:31;98529.75;;;13.36;100.00
5455;BME280;2750;49.050;9.250;2023-11-19T05:29:34;98528.44;;;13.44;100.00
5455;BME280;2750;49.050;9.250;2023-11-19T05:34:35;98528.31;;;13.59;100.00
5455;BME280;2750;49.050;9.250;2023-11-19T05:39:37;98520.25;;;13.35;100.00
5455;BME280;2750;49.050;9.250;2023-11-19T05:44:40;98517.75;;;13.75;100.00
5455;BME280;2750;49.050;9.250;2023-11-19T05:49:41;98515.09;;;13.89;100.00
5455;BME280;2750;49.050;9.250;2023-11-19T05:54:44;98519.59;;;13.87;100.00
5455;BME280;2750;49.050;9.250;2023-11-19T05:59:48;98523.63;;;14.05;100.00
5455;BME280;2750;49.050;9.250;2023-11-19T06:04:50;98527.63;;;14.23;100.00
5455;BME280;2750;49.050;9.250;2023-11-19T06:09:51;98537.75;;;14.28;100.00
5455;BME280;2750;49.050;9.250;2023-11-19T06:14:54;98540.34;;;14.42;100.00
5455;BME280;2750;49.050;9.250;2023-11-19T06:19:57;98531.22;;;14.35;100.00
5455;BME280;2750;49.050;9.250;2023-11-19T06:24:58;98526.97;;;14.47;100.00
5455;BME280;2750;49.050;9.250;2023-11-19T06:30:02;98525.94;;;14.49;100.00
5455;BME280;2750;49.050;9.250;2023-11-19T06:35:04;98530.97;;;14.52;100.00
5455;BME280;2750;49.050;9.250;2023-11-19T06:40:07;98539.06;;;14.35;100.00
5455;BME280;2750;49.050;9.250;2023-11-19T06:45:11;98527.94;;;14.58;100.00
5455;BME280;2750;49.050;9.250;2023-11-19T06:50:13;98524.81;;;14.66;100.00
5455;BME280;2750;49.050;9.250;2023-11-19T06:55:16;98528.78;;;14.84;99.46
5455;BME280;2750;49.050;9.250;2023-11-19T07:00:21;98523.47;;;14.86;99.56
5455;BME280;2750;49.050;9.250;2023-11-19T07:05:23;98524.72;;;14.93;98.80
5455;BME280;2750;49.050;9.250;2023-11-19T07:10:25;98544.78;;;14.92;98.28
5455;BME280;2750;49.050;9.250;2023-11-19T07:15:28;98563.28;;;15.27;97.00
5455;BME280;2750;49.050;9.250;2023-11-19T07:20:29;98571.03;;;15.16;98.18
5455;BME280;2750;49.050;9.250;2023-11-19T07:25:31;98556.88;;;15.31;97.59
5455;BME280;2750;49.050;9.250;2023-11-19T07:30:34;98553.03;;;15.24;97.57
5455;BME280;2750;49.050;9.250;2023-11-19T07:35:35;98574.75;;;15.62;96.42
5455;BME280;2750;49.050;9.250;2023-11-19T07:40:37;98579.69;;;15.54;95.99
5455;BME280;2750;49.050;9.250;2023-11-19T07:45:40;98566.59;;;15.67;95.55
5455;BME280;2750;49.050;9.250;2023-11-19T07:50:46;98572.47;;;15.20;97.76
5455;BME280;2750;49.050;9.250;2023-11-19T07:55:47;98565.91;;;15.52;96.80
5455;BME280;2750;49.050;9.250;2023-11-19T08:00:50;98577.91;;;15.42;96.49
5455;BME280;2750;49.050;9.250;2023-11-19T08:05:55;98587.56;;;15.29;97.50
5455;BME280;2750;49.050;9.250;2023-11-19T08:10:56;98583.34;;;15.39;97.86
5455;BME280;2750;49.050;9.250;2023-11-19T08:15:59;98584.84;;;15.79;95.72
5455;BME280;2750;49.050;9.250;2023-11-19T08:21:00;98569.75;;;15.34;97.10
5455;BME280;2750;49.050;9.250;2023-11-19T08:26:05;98580.19;;;15.34;97.65
5455;BME280;2750;49.050;9.250;2023-11-19T08:31:08;98581.22;;;15.69;96.19
5455;BME280;2750;49.050;9.250;2023-11-19T08:36:15;98575.97;;;15.82;93.88
5455;BME280;2750;49.050;9.250;2023-11-19T08:41:16;98590.59;;;15.85;94.71
5455;BME280;2750;49.050;9.250;2023-11-19T08:46:20;98598.97;;;15.90;94.07
5455;BME280;2750;49.050;9.250;2023-11-19T08:51:22;98595.78;;;15.73;94.41
5455;BME280;2750;49.050;9.250;2023-11-19T08:56:25;98598.91;;;15.78;94.28
5455;BME280;2750;49.050;9.250;2023-11-19T09:01:33;98582.72;;;15.61;95.66
5455;BME280;2750;49.050;9.250;2023-11-19T09:06:35;98601.84;;;15.74;95.38
5455;BME280;2750;49.050;9.250;2023-11-19T09:11:37;98607.59;;;16.03;95.06
5455;BME280;2750;49.050;9.250;2023-11-19T09:16:40;98606.56;;;16.29;93.78
5455;BME280;2750;49.050;9.250;2023-11-19T09:21:41;98620.91;;;16.36;93.19
5455;BME280;2750;49.050;9.250;2023-11-19T09:26:43;98611.25;;;16.13;92.40
5455;BME280;2750;49.050;9.250;2023-11-19T09:31:46;98624.19;;;16.27;91.64
5455;BME280;2750;49.050;9.250;2023-11-19T09:36:47;98618.78;;;16.41;91.18
5455;BME280;2750;49.050;9.250;2023-11-19T09:41:49;98625.22;;;16.48;90.03
5455;BME280;2750;49.050;9.250;2023-11-19T09:46:52;98625.09;;;16.39;90.02
5455;BME280;2750;49.050;9.250;2023-11-19T09:51:54;98620.63;;;16.28;90.15
5455;BME280;2750;49.050;9.250;2023-11-19T09:56:57;98618.72;;;16.78;89.24
5455;BME280;2750;49.050;9.250;2023-11-19T10:02:04;98615.31;;;16.88;89.64
5455;BME280;2750;49.050;9.250;2023-11-19T10:07:05;98619.91;;;17.19;89.12
5455;BME280;2750;49.050;9.250;2023-11-19T10:12:07;98617.78;;;17.47;86.56
5455;BME280;2750;49.050;9.250;2023-11-19T10:17:10;98604.53;;;17.26;87.85
5455;BME280;2750;49.050;9.250;2023-11-19T10:22:11;98615.16;;;17.36;87.77
5455;BME280;2750;49.050;9.250;2023-11-19T10:27:15;98605.91;;;16.86;88.02
5455;BME280;2750;49.050;9.250;2023-11-19T10:32:18;98589.41;;;16.72;88.20
5455;BME280;2750;49.050;9.250;2023-11-19T10:37:29;98623.75;;;16.81;88.70
5455;BME280;2750;49.050;9.250;2023-11-19T10:42:32;98605.63;;;16.54;86.91
5455;BME280;2750;49.050;9.250;2023-11-19T10:47:35;98605.25;;;16.47;86.44
5455;BME280;2750;49.050;9.250;2023-11-19T10:52:37;98598.00;;;16.27;87.99
5455;BME280;2750;49.050;9.250;2023-11-19T10:57:39;98599.91;;;16.25;87.06
5455;BME280;2750;49.050;9.250;2023-11-19T11:02:50;98581.06;;;16.20;87.77
5455;BME280;2750;49.050;9.250;2023-11-19T11:07:55;98570.53;;;17.02;85.58
5455;BME280;2750;49.050;9.250;2023-11-19T11:12:59;98566.19;;;16.44;86.05
5455;BME280;2750;49.050;9.250;2023-11-19T11:18:03;98559.25;;;16.67;84.36
5455;BME280;2750;49.050;9.250;2023-11-19T11:23:24;98572.03;;;16.83;83.55
5455;BME280;2750;49.050;9.250;2023-11-19T11:28:35;98559.78;;;16.94;81.99
5455;BME280;2750;49.050;9.250;2023-11-19T11:33:58;98566.63;;;17.19;81.36
5455;BME280;2750;49.050;9.250;2023-11-19T11:39:02;98560.47;;;16.74;82.10
5455;BME280;2750;49.050;9.250;2023-11-19T11:44:07;98555.13;;;16.87;82.26
5455;BME280;2750;49.050;9.250;2023-11-19T11:49:11;98562.88;;;16.53;82.93
5455;BME280;2750;49.050;9.250;2023-11-19T11:54:26;98546.31;;;16.53;83.71
5455;BME280;2750;49.050;9.250;2023-11-19T11:59:36;98527.59;;;16.70;81.68
5455;BME280;2750;49.050;9.250;2023-11-19T12:04:39;98519.56;;;16.60;82.31
5455;BME280;2750;49.050;9.250;2023-11-19T12:09:41;98523.44;;;16.79;82.68
5455;BME280;2750;49.050;9.250;2023-11-19T12:15:03;98507.72;;;16.90;81.67
5455;BME280;2750;49.050;9.250;2023-11-19T12:20:08;98477.69;;;17.16;81.92
5455;BME280;2750;49.050;9.250;2023-11-19T12:25:11;98497.94;;;17.47;81.49
5455;BME280;2750;49.050;9.250;2023-11-19T12:30:17;98508.28;;;17.82;80.60
5455;BME280;2750;49.050;9.250;2023-11-19T12:35:20;98478.53;;;17.05;79.59
5455;BME280;2750;49.050;9.250;2023-11-19T12:40:22;98493.88;;;17.21;79.50
5455;BME280;2750;49.050;9.250;2023-11-19T12:45:24;98493.66;;;17.02;78.99
5455;BME280;2750;49.050;9.250;2023-11-19T12:50:27;98488.53;;;17.23;79.07
5455;BME280;2750;49.050;9.250;2023-11-19T12:55:29;98502.47;;;17.34;78.02
5455;BME280;2750;49.050;9.250;2023-11-19T13:00:32;98484.09;;;17.99;77.22
5455;BME280;2750;49.050;9.250;2023-11-19T13:05:36;98479.41;;;17.82;77.72
5455;BME280;2750;49.050;9.250;2023-11-19T13:10:50;98455.47;;;17.53;77.70
5455;BME280;2750;49.050;9.250;2023-11-19T13:15:52;98483.31;;;17.11;78.14
5455;BME280;2750;49.050;9.250;2023-11-19T13:20:55;98481.84;;;17.18;78.70
5455;BME280;2750;49.050;9.250;2023-11-19T13:25:57;98462.56;;;16.97;77.66
5455;BME280;2750;49.050;9.250;2023-11-19T13:30:59;98460.88;;;17.07;77.90
5455;BME280;2750;49.050;9.250;2023-11-19T13:36:02;98463.63;;;16.95;78.72
5455;BME280;2750;49.050;9.250;2023-11-19T13:41:06;98460.06;;;17.07;77.74
5455;BME280;2750;49.050;9.250;2023-11-19T13:46:09;98455.06;;;16.93;79.13
5455;BME280;2750;49.050;9.250;2023-11-19T13:51:12;98436.56;;;16.94;77.96
5455;BME280;2750;49.050;9.250;2023-11-19T13:56:14;98431.34;;;17.05;77.60
5455;BME280;2750;49.050;9.250;2023-11-19T14:01:15;98430.25;;;16.63;76.77
5455;BME280;2750;49.050;9.250;2023-11-19T14:06:18;98419.41;;;16.68;76.33
5455;BME280;2750;49.050;9.250;2023-11-19T14:11:20;98433.72;;;16.75;76.71
5455;BME280;2750;49.050;9.250;2023-11-19T14:16:22;98434.78;;;16.61;75.86
5455;BME280;2750;49.050;9.250;2023-11-19T14:21:28;98447.53;;;16.77;76.29
5455;BME280;2750;49.050;9.250;2023-11-19T14:26:30;98441.56;;;16.75;76.76
5455;BME280;2750;49.050;9.250;2023-11-19T14:31:32;98433.00;;;16.73;77.51
5455;BME280;2750;49.050;9.250;2023-11-19T14:36:35;98428.00;;;16.81;76.54
5455;BME280;2750;49.050;9.250;2023-11-19T14:41:36;98421.00;;;16.59;77.27
5455;BME280;2750;49.050;9.250;2023-11-19T14:46:39;98439.25;;;16.48;77.95
5455;BME280;2750;49.050;9.250;2023-11-19T14:51:41;98443.88;;;16.45;77.32
5455;BME280;2750;49.050;9.250;2023-11-19T14:56:43;98444.50;;;16.48;77.08
5455;BME280;2750;49.050;9.250;2023-11-19T15:01:45;98443.47;;;16.16;76.64
5455;BME280;2750;49.050;9.250;2023-11-19T15:06:47;98439.06;;;16.05;77.72
5455;BME280;2750;49.050;9.250;2023-11-19T15:11:49;98446.66;;;16.43;76.78
5455;BME280;2750;49.050;9.250;2023-11-19T15:16:50;98456.97;;;16.45;75.82
5455;BME280;2750;49.050;9.250;2023-11-19T15:21:54;98460.84;;;16.52;76.67
5455;BME280;2750;49.050;9.250;2023-11-19T15:26:56;98460.22;;;16.48;76.61
5455;BME280;2750;49.050;9.250;2023-11-19T15:31:57;98460.75;;;16.30;78.12
5455;BME280;2750;49.050;9.250;2023-11-19T15:37:00;98451.47;;;15.91;79.61
5455;BME280;2750;49.050;9.250;2023-11-19T15:42:02;98469.69;;;15.68;80.62
5455;BME280;2750;49.050;9.250;2023-11-19T15:47:04;98459.22;;;15.68;81.02
5455;BME280;2750;49.050;9.250;2023-11-19T15:52:07;98461.97;;;15.67;81.04
5455;BME280;2750;49.050;9.250;2023-11-19T15:57:09;98453.00;;;15.82;80.07
5455;BME280;2750;49.050;9.250;2023-11-19T16:02:11;98456.38;;;15.71;79.77
5455;BME280;2750;49.050;9.250;2023-11-19T16:07:13;98461.72;;;15.94;79.62
5455;BME280;2750;49.050;9.250;2023-11-19T16:12:15;98461.88;;;15.79;80.19
5455;BME280;2750;49.050;9.250;2023-11-19T16:17:16;98472.56;;;15.53;80.36
5455;BME280;2750;49.050;9.250;2023-11-19T16:22:19;98473.25;;;15.67;80.02
5455;BME280;2750;49.050;9.250;2023-11-19T16:27:21;98475.78;;;15.56;79.95
5455;BME280;2750;49.050;9.250;2023-11-19T16:32:22;98470.72;;;15.29;80.95
5455;BME280;2750;49.050;9.250;2023-11-19T16:37:25;98477.53;;;15.32;80.39
5455;BME280;2750;49.050;9.250;2023-11-19T16:42:26;98494.69;;;15.23;80.50
5455;BME280;2750;49.050;9.250;2023-11-19T16:47:28;98488.38;;;15.26;80.87
5455;BME280;2750;49.050;9.250;2023-11-19T16:52:31;98488.97;;;14.93;81.59
5455;BME280;2750;49.050;9.250;2023-11-19T16:57:32;98501.63;;;14.87;81.27
5455;BME280;2750;49.050;9.250;2023-11-19T17:02:34;98515.41;;;14.89;81.62
5455;BME280;2750;49.050;9.250;2023-11-19T17:07:37;98506.72;;;14.88;81.33
5455;BME280;2750;49.050;9.250;2023-11-19T17:12:39;98510.97;;;15.27;80.54
5455;BME280;2750;49.050;9.250;2023-11-19T17:17:41;98504.16;;;15.37;79.87
5455;BME280;2750;49.050;9.250;2023-11-19T17:22:44;98519.13;;;15.35;80.19
5455;BME280;2750;49.050;9.250;2023-11-19T17:27:45;98521.59;;;15.62;79.40
5455;BME280;2750;49.050;9.250;2023-11-19T17:32:47;98523.69;;;15.69;79.65
5455;BME280;2750;49.050;9.250;2023-11-19T17:37:49;98533.22;;;15.94;79.18
5455;BME280;2750;49.050;9.250;2023-11-19T17:42:51;98532.44;;;15.81;79.35
5455;BME280;2750;49.050;9.250;2023-11-19T17:47:53;98537.44;;;15.84;79.48
5455;BME280;2750;49.050;9.250;2023-11-19T17:52:56;98523.38;;;15.61;79.74
5455;BME280;2750;49.050;9.250;2023-11-19T17:57:58;98524.91;;;15.15;83.25
5455;BME280;2750;49.050;9.250;2023-11-19T18:02:59;98534.84;;;14.59;87.05
5455;BME280;2750;49.050;9.250;2023-11-19T18:08:02;98527.63;;;14.23;89.69
5455;BME280;2750;49.050;9.250;2023-11-19T18:13:05;98527.97;;;14.05;90.90
5455;BME280;2750;49.050;9.250;2023-11-19T18:18:07;98530.69;;;14.03;91.98
5455;BME280;2750;49.050;9.250;2023-11-19T18:23:10;98534.25;;;14.02;91.98
5455;BME280;2750;49.050;9.250;2023-11-19T18:28:12;98545.69;;;14.00;92.73
5455;BME280;2750;49.050;9.250;2023-11-19T18:33:13;98538.44;;;14.05;92.38
5455;BME280;2750;49.050;9.250;2023-11-19T18:38:16;98538.22;;;13.81;93.40
5455;BME280;2750;49.050;9.250;2023-11-19T18:43:18;98539.94;;;13.68;93.54
5455;BME280;2750;49.050;9.250;2023-11-19T18:48:19;98535.78;;;13.51;93.64
5455;BME280;2750;49.050;9.250;2023-11-19T18:53:22;98538.03;;;13.29;92.77
5455;BME280;2750;49.050;9.250;2023-11-19T18:58:23;98533.84;;;13.40;91.11
5455;BME280;2750;49.050;9.250;2023-11-19T19:03:25;98528.53;;;13.42;90.46
5455;BME280;2750;49.050;9.250;2023-11-19T19:08:32;98529.63;;;13.52;90.44
5455;BME280;2750;49.050;9.250;2023-11-19T19:13:34;98519.13;;;13.39;90.33
5455;BME280;2750;49.050;9.250;2023-11-19T19:18:35;98529.00;;;13.49;89.33
5455;BME280;2750;49.050;9.250;2023-11-19T19:23:39;98537.84;;;13.32;88.50
5455;BME280;2750;49.050;9.250;2023-11-19T19:28:40;98536.94;;;13.33;87.50
5455;BME280;2750;49.050;9.250;2023-11-19T19:33:42;98538.84;;;13.44;87.03
5455;BME280;2750;49.050;9.250;2023-11-19T19:38:44;98541.00;;;13.51;87.18
5455;BME280;2750;49.050;9.250;2023-11-19T19:43:46;98556.72;;;13.50;86.43
5455;BME280;2750;49.050;9.250;2023-11-19T19:48:48;98558.78;;;13.45;86.10
5455;BME280;2750;49.050;9.250;2023-11-19T19:53:52;98562.88;;;13.49;85.82
5455;BME280;2750;49.050;9.250;2023-11-19T19:58:54;98575.72;;;13.52;85.01
5455;BME280;2750;49.050;9.250;2023-11-19T20:03:55;98573.31;;;13.49;84.71
5455;BME280;2750;49.050;9.250;2023-11-19T20:08:59;98578.41;;;13.50;85.76
5455;BME280;2750;49.050;9.250;2023-11-19T20:14:01;98595.63;;;13.67;84.87
5455;BME280;2750;49.050;9.250;2023-11-19T20:19:03;98604.66;;;13.47;85.08
5455;BME280;2750;49.050;9.250;2023-11-19T20:24:07;98613.22;;;13.49;85.26
5455;BME280;2750;49.050;9.250;2023-11-19T20:29:09;98601.97;;;13.49;84.67
5455;BME280;2750;49.050;9.250;2023-11-19T20:34:11;98618.44;;;13.49;84.46
5455;BME280;2750;49.050;9.250;2023-11-19T20:39:14;98605.16;;;13.25;84.52
5455;BME280;2750;49.050;9.250;2023-11-19T20:44:15;98611.75;;;13.45;83.53
5455;BME280;2750;49.050;9.250;2023-11-19T20:49:17;98629.81;;;13.62;83.11
5455;BME280;2750;49.050;9.250;2023-11-19T20:54:22;98632.03;;;13.82;82.24
5455;BME280;2750;49.050;9.250;2023-11-19T20:59:23;98631.03;;;13.57;82.62
5455;BME280;2750;49.050;9.250;2023-11-19T21:04:25;98629.91;;;13.75;81.22
5455;BME280;2750;49.050;9.250;2023-11-19T21:09:28;98647.22;;;13.76;80.99
5455;BME280;2750;49.050;9.250;2023-11-19T21:14:29;98659.50;;;13.60;81.43
5455;BME280;2750;49.050;9.250;2023-11-19T21:19:32;98657.25;;;13.54;81.75
5455;BME280;2750;49.050;9.250;2023-11-19T21:24:35;98638.06;;;13.12;82.34
5455;BME280;2750;49.050;9.250;2023-11-19T21:29:37;98646.31;;;12.75;84.42
5455;BME280;2750;49.050;9.250;2023-11-19T21:34:38;98652.06;;;12.50;85.72
5455;BME280;2750;49.050;9.250;2023-11-19T21:39:42;98659.72;;;12.53;86.00
5455;BME280;2750;49.050;9.250;2023-11-19T21:44:44;98653.28;;;12.74;84.92
5455;BME280;2750;49.050;9.250;2023-11-19T21:49:45;98660.72;;;12.80;84.89
5455;BME280;2750;49.050;9.250;2023-11-19T21:54:49;98654.41;;;12.84;84.48
5455;BME280;2750;49.050;9.250;2023-11-19T21:59:50;98641.34;;;13.30;83.43
5455;BME280;2750;49.050;9.250;2023-11-19T22:04:52;98647.31;;;13.60;81.80
5455;BME280;2750;49.050;9.250;2023-11-19T22:09:55;98643.78;;;13.47;82.19
5455;BME280;2750;49.050;9.250;2023-11-19T22:14:56;98642.66;;;13.79;81.85
5455;BME280;2750;49.050;9.250;2023-11-19T22:19:58;98644.41;;;13.36;82.16
5455;BME280;2750;49.050;9.250;2023-11-19T22:25:00;98651.75;;;13.16;83.39
5455;BME280;2750;49.050;9.250;2023-11-19T22:30:02;98649.53;;;13.24;82.77
5455;BME280;2750;49.050;9.250;2023-11-19T22:35:04;98635.13;;;13.03;83.50
5455;BME280;2750;49.050;9.250;2023-11-19T22:40:08;98623.56;;;13.51;81.19
5455;BME280;2750;49.050;9.250;2023-11-19T22:45:12;98618.41;;;13.77;80.22
5455;BME280;2750;49.050;9.250;2023-11-19T22:50:13;98618.34;;;13.65;80.43
5455;BME280;2750;49.050;9.250;2023-11-19T22:55:16;98622.91;;;13.47;80.76
5455;BME280;2750;49.050;9.250;2023-11-19T23:00:18;98629.31;;;13.27;81.86
5455;BME280;2750;49.050;9.250;2023-11-19T23:05:28;98633.59;;;12.84;81.88
5455;BME280;2750;49.050;9.250;2023-11-19T23:10:32;98621.97;;;13.34;80.47
5455;BME280;2750;49.050;9.250;2023-11-19T23:15:34;98607.19;;;13.20;80.54
5455;BME280;2750;49.050;9.250;2023-11-19T23:20:35;98599.34;;;13.34;79.60
5455;BME280;2750;49.050;9.250;2023-11-19T23:25:38;98615.66;;;13.38;80.32
5455;BME280;2750;49.050;9.250;2023-11-19T23:30:39;98616.22;;;13.43;80.20
5455;BME280;2750;49.050;9.250;2023-11-19T23:35:41;98605.13;;;13.54;79.31
5455;BME280;2750;49.050;9.250;2023-11-19T23:40:44;98610.28;;;13.41;78.86
5455;BME280;2750;49.050;9.250;2023-11-19T23:45:47;98597.47;;;13.65;79.21
5455;BME280;2750;49.050;9.250;2023-11-19T23:50:48;98599.84;;;13.41;80.46
5455;BME280;2750;49.050;9.250;2023-11-19T23:55:51;98604.56;;;13.34;80.46
